createdAt,value
2023-04-19T00:05:02.430Z,2.60
2023-04-19T00:08:06.118Z,2.80
2023-04-19T00:11:09.124Z,3.50
2023-04-19T00:14:11.476Z,2.90
2023-04-19T00:17:13.438Z,2.70
2023-04-19T00:20:15.409Z,2.80
2023-04-19T00:23:17.823Z,2.70
2023-04-19T00:26:20.062Z,2.60
2023-04-19T00:29:22.762Z,2.80
2023-04-19T00:32:24.888Z,2.40
2023-04-19T00:35:27.012Z,2.50
2023-04-19T00:38:28.947Z,2.50
2023-04-19T00:41:30.822Z,2.50
2023-04-19T00:44:32.895Z,2.60
2023-04-19T00:47:35.586Z,2.70
2023-04-19T00:50:37.726Z,2.90
2023-04-19T00:53:40.449Z,2.30
2023-04-19T00:56:44.361Z,2.50
2023-04-19T00:59:47.015Z,3.10
2023-04-19T01:02:49.218Z,3.30
2023-04-19T01:05:53.830Z,4.60
2023-04-19T01:08:56.494Z,4.50
2023-04-19T01:12:01.456Z,4.90
2023-04-19T01:15:04.306Z,4.30
2023-04-19T01:18:06.550Z,3.30
2023-04-19T01:21:09.983Z,3.80
2023-04-19T01:24:12.167Z,3.30
2023-04-19T01:27:16.265Z,3.40
2023-04-19T01:30:18.331Z,3.50
2023-04-19T01:33:21.336Z,3.00
2023-04-19T01:36:23.288Z,3.40
2023-04-19T01:39:26.893Z,2.70
2023-04-19T01:42:28.870Z,3.40
2023-04-19T01:45:32.779Z,3.20
2023-04-19T01:48:35.360Z,2.90
2023-04-19T01:51:38.707Z,2.80
2023-04-19T01:54:40.620Z,2.50
2023-04-19T01:57:42.606Z,2.70
2023-04-19T02:04:44.265Z,3.00
2023-04-19T02:07:47.563Z,2.90
2023-04-19T02:10:50.979Z,3.40
2023-04-19T02:13:54.604Z,3.10
2023-04-19T02:16:58.766Z,3.20
2023-04-19T02:20:01.981Z,3.70
2023-04-19T02:23:05.677Z,3.30
2023-04-19T02:26:13.164Z,3.10
2023-04-19T02:31:52.665Z,3.00
2023-04-19T02:34:56.188Z,4.00
2023-04-19T02:38:04.149Z,3.40
2023-04-19T02:41:08.570Z,3.60
2023-04-19T02:44:16.455Z,4.30
2023-04-19T02:47:21.309Z,3.20
2023-04-19T02:50:24.513Z,3.00
2023-04-19T02:53:28.765Z,4.00
2023-04-19T02:56:32.283Z,4.00
2023-04-19T02:59:35.725Z,3.80
2023-04-19T03:02:40.058Z,4.40
2023-04-19T03:05:44.102Z,4.40
2023-04-19T03:08:47.558Z,4.60
2023-04-19T03:11:52.855Z,4.90
2023-04-19T03:14:56.309Z,4.10
2023-04-19T03:18:01.708Z,5.10
2023-04-19T03:21:09.083Z,4.00
2023-04-19T03:24:30.367Z,4.80
2023-04-19T03:27:37.014Z,4.40
2023-04-19T03:30:43.313Z,4.60
2023-04-19T03:33:46.733Z,4.60
2023-04-19T03:36:50.193Z,5.50
2023-04-19T03:39:53.502Z,5.10
2023-04-19T03:43:02.223Z,4.80
2023-04-19T03:46:08.271Z,5.40
2023-04-19T03:49:12.235Z,5.50
2023-04-19T03:52:16.524Z,5.50
2023-04-19T03:55:21.111Z,4.70
2023-04-19T03:58:24.457Z,3.80
2023-04-19T04:04:45.612Z,3.80
2023-04-19T04:07:50.008Z,4.30
2023-04-19T04:10:54.977Z,3.80
2023-04-19T04:13:58.941Z,4.30
2023-04-19T04:17:04.841Z,4.50
2023-04-19T04:20:12.059Z,3.50
2023-04-19T04:23:15.647Z,4.10
2023-04-19T04:26:25.429Z,4.60
2023-04-19T04:29:39.699Z,4.60
2023-04-19T04:32:43.540Z,4.50
2023-04-19T04:35:47.533Z,4.20
2023-04-19T04:38:54.507Z,5.30
2023-04-19T04:41:58.424Z,4.40
2023-04-19T04:45:01.839Z,5.50
2023-04-19T04:48:06.914Z,5.40
2023-04-19T04:51:10.273Z,4.50
2023-04-19T04:54:15.425Z,5.00
2023-04-19T04:57:20.238Z,4.80
2023-04-19T05:00:24.491Z,5.20
2023-04-19T05:03:35.277Z,5.80
2023-04-19T05:06:41.497Z,5.10
2023-04-19T05:09:45.573Z,5.20
2023-04-19T05:12:52.807Z,5.80
2023-04-19T05:15:56.793Z,5.60
2023-04-19T05:19:00.617Z,6.40
2023-04-19T05:22:04.839Z,5.30
2023-04-19T05:25:10.816Z,6.20
2023-04-19T05:28:14.510Z,5.40
2023-04-19T05:31:24.288Z,5.60
2023-04-19T05:34:57.178Z,5.60
2023-04-19T05:38:00.797Z,5.20
2023-04-19T05:41:06.193Z,6.00
2023-04-19T05:44:09.802Z,5.20
2023-04-19T05:47:14.673Z,4.90
2023-04-19T05:50:36.971Z,5.20
2023-04-19T05:54:01.002Z,5.20
2023-04-19T05:57:05.081Z,4.50
2023-04-19T06:00:32.945Z,4.90
2023-04-19T06:05:09.507Z,3.80
2023-04-19T06:08:14.981Z,4.20
2023-04-19T06:11:26.451Z,4.80
2023-04-19T06:14:34.269Z,4.00
2023-04-19T06:17:36.627Z,4.90
2023-04-19T06:28:05.970Z,3.50
2023-04-19T06:34:55.206Z,4.00
2023-04-19T06:37:59.708Z,4.10
2023-04-19T06:41:01.805Z,4.60
2023-04-19T06:44:05.617Z,3.90
2023-04-19T06:47:07.964Z,4.60
2023-04-19T06:50:10.841Z,4.40
2023-04-19T06:53:13.518Z,5.60
2023-04-19T06:56:15.406Z,5.70
2023-04-19T06:59:20.770Z,4.50
2023-04-19T07:02:24.548Z,4.20
2023-04-19T07:05:27.121Z,4.20
2023-04-19T07:08:42.427Z,4.60
2023-04-19T07:11:52.544Z,3.90
2023-04-19T07:14:56.720Z,4.10
2023-04-19T07:17:58.739Z,4.30
2023-04-19T07:21:01.063Z,3.40
2023-04-19T07:24:08.038Z,5.50
2023-04-19T07:27:10.568Z,3.90
2023-04-19T07:30:12.490Z,4.10
2023-04-19T07:33:15.885Z,3.40
2023-04-19T07:36:18.279Z,3.80
2023-04-19T07:39:20.261Z,4.00
2023-04-19T07:42:22.116Z,3.30
2023-04-19T07:45:24.411Z,3.80
2023-04-19T07:48:26.433Z,3.40
2023-04-19T07:51:28.344Z,3.80
2023-04-19T07:54:30.927Z,3.50
2023-04-19T07:57:35.512Z,3.20
2023-04-19T08:00:37.520Z,3.80
2023-04-19T08:03:41.763Z,3.40
2023-04-19T08:06:43.908Z,3.30
2023-04-19T08:09:46.125Z,3.30
2023-04-19T08:13:03.578Z,3.60
2023-04-19T08:19:14.126Z,3.00
2023-04-19T08:22:17.534Z,3.50
2023-04-19T08:25:20.774Z,4.50
2023-04-19T08:28:24.018Z,3.70
2023-04-19T08:31:25.927Z,3.40
2023-04-19T08:34:28.214Z,3.60
2023-04-19T08:37:30.137Z,3.30
2023-04-19T08:40:32.596Z,3.50
2023-04-19T08:43:37.449Z,2.90
2023-04-19T08:46:42.017Z,3.30
2023-04-19T08:49:49.209Z,3.00
2023-04-19T08:53:12.135Z,3.30
2023-04-19T08:56:32.311Z,3.80
2023-04-19T08:59:38.912Z,2.80
2023-04-19T09:02:54.074Z,2.90
2023-04-19T09:05:56.583Z,3.20
2023-04-19T09:15:41.391Z,3.10
2023-04-19T09:19:02.394Z,2.70
2023-04-19T09:22:15.997Z,2.90
2023-04-19T09:25:41.893Z,3.00
2023-04-19T09:28:56.813Z,3.60
2023-04-19T09:31:59.994Z,4.00
2023-04-19T09:35:02.168Z,4.00
2023-04-19T09:38:07.201Z,3.60
2023-04-19T09:41:10.162Z,3.90
2023-04-19T09:47:29.634Z,2.90
2023-04-19T09:50:34.048Z,3.20
2023-04-19T09:53:42.573Z,3.50
2023-04-19T09:56:48.260Z,3.10
2023-04-19T09:59:50.839Z,4.60
2023-04-19T10:07:59.895Z,3.30
2023-04-19T10:11:05.885Z,3.30
2023-04-19T10:14:13.963Z,3.80
2023-04-19T10:20:30.923Z,3.80
2023-04-19T10:23:37.496Z,3.00
2023-04-19T10:27:24.548Z,3.40
2023-04-19T10:30:27.810Z,3.30
2023-04-19T10:33:37.912Z,4.10
2023-04-19T10:36:41.582Z,3.80
2023-04-19T10:39:45.626Z,4.50
2023-04-19T10:43:11.621Z,3.70
2023-04-19T10:46:22.557Z,3.80
2023-04-19T10:49:30.330Z,3.50
2023-04-19T10:52:38.119Z,5.90
2023-04-19T10:55:53.499Z,4.10
2023-04-19T10:59:03.288Z,4.40
2023-04-19T11:02:42.609Z,4.90
2023-04-19T11:06:20.211Z,3.90
2023-04-19T11:09:42.471Z,4.00
2023-04-19T11:12:46.266Z,3.90
2023-04-19T11:15:52.254Z,4.50
2023-04-19T11:18:56.453Z,4.80
2023-04-19T11:22:00.336Z,4.50
2023-04-19T11:25:17.464Z,3.60
2023-04-19T11:28:21.904Z,6.00
2023-04-19T11:31:27.732Z,4.30
2023-04-19T11:34:41.709Z,4.80
2023-04-19T11:37:47.536Z,4.00
2023-04-19T11:41:03.920Z,4.90
2023-04-19T11:44:20.306Z,5.00
2023-04-19T11:47:24.566Z,5.00
2023-04-19T11:50:41.803Z,4.40
2023-04-19T11:53:45.768Z,3.50
2023-04-19T11:57:08.423Z,4.90
2023-04-19T12:00:12.658Z,5.50
2023-04-19T12:03:17.534Z,5.80
2023-04-19T12:06:27.117Z,4.30
2023-04-19T12:09:37.110Z,4.30
2023-04-19T12:12:41.822Z,4.10
2023-04-19T12:15:47.093Z,5.30
2023-04-19T12:18:51.788Z,5.50
2023-04-19T12:22:09.042Z,3.20
2023-04-19T12:25:12.857Z,4.30
2023-04-19T12:28:17.939Z,4.50
2023-04-19T12:31:22.055Z,3.90
2023-04-19T12:34:26.581Z,4.60
2023-04-19T12:37:29.878Z,5.10
2023-04-19T12:40:33.864Z,4.20
2023-04-19T12:43:38.481Z,4.70
2023-04-19T12:46:42.769Z,6.30
2023-04-19T12:49:46.186Z,5.00
2023-04-19T12:52:51.440Z,5.00
2023-04-19T12:55:56.140Z,4.80
2023-04-19T12:59:00.840Z,5.40
2023-04-19T13:02:06.221Z,5.40
2023-04-19T13:05:13.932Z,5.70
2023-04-19T13:08:28.314Z,6.90
2023-04-19T13:11:41.193Z,6.50
2023-04-19T13:14:46.431Z,5.20
2023-04-19T13:17:51.164Z,6.70
2023-04-19T13:20:55.125Z,6.40
2023-04-19T13:23:59.344Z,6.10
2023-04-19T13:27:02.989Z,4.90
2023-04-19T13:30:07.623Z,6.30
2023-04-19T13:33:16.952Z,7.40
2023-04-19T13:36:23.260Z,7.20
2023-04-19T13:39:27.719Z,6.40
2023-04-19T13:42:31.181Z,5.20
2023-04-19T13:45:36.085Z,6.20
2023-04-19T13:48:41.634Z,6.00
2023-04-19T13:51:50.143Z,7.00
2023-04-19T13:54:54.250Z,5.60
2023-04-19T13:57:58.569Z,5.40
2023-04-19T14:04:47.030Z,5.80
2023-04-19T14:07:52.697Z,6.30
2023-04-19T14:10:58.500Z,5.50
2023-04-19T14:14:02.909Z,5.10
2023-04-19T14:17:06.174Z,6.00
2023-04-19T14:20:14.173Z,6.80
2023-04-19T14:23:18.199Z,6.90
2023-04-19T14:26:22.099Z,5.80
2023-04-19T14:29:25.593Z,5.50
2023-04-19T14:32:31.677Z,6.20
2023-04-19T14:35:35.753Z,5.80
2023-04-19T14:38:39.382Z,6.80
2023-04-19T14:41:42.784Z,5.10
2023-04-19T14:44:46.737Z,7.00
2023-04-19T14:47:50.056Z,5.40
2023-04-19T14:50:56.457Z,6.90
2023-04-19T14:54:00.945Z,6.50
2023-04-19T14:57:04.474Z,6.90
2023-04-19T15:00:11.275Z,5.40
2023-04-19T15:03:16.264Z,6.10
2023-04-19T15:06:21.881Z,5.10
2023-04-19T15:09:26.726Z,4.00
2023-04-19T15:12:31.196Z,4.20
2023-04-19T15:15:37.974Z,5.70
2023-04-19T15:18:41.181Z,4.50
2023-04-19T15:21:45.816Z,5.30
2023-04-19T15:24:49.726Z,6.40
2023-04-19T15:27:53.284Z,5.40
2023-04-19T15:31:04.383Z,4.70
2023-04-19T15:34:09.284Z,4.60
2023-04-19T15:37:12.528Z,4.00
2023-04-19T15:40:17.290Z,3.70
2023-04-19T15:43:21.104Z,5.10
2023-04-19T15:46:26.150Z,3.60
2023-04-19T15:49:30.423Z,4.50
2023-04-19T15:52:35.493Z,4.00
2023-04-19T15:55:40.195Z,4.00
2023-04-19T15:58:43.700Z,3.80
2023-04-19T16:01:49.717Z,4.20
2023-04-19T16:04:53.547Z,4.60
2023-04-19T16:08:05.816Z,4.20
2023-04-19T16:11:11.050Z,4.50
2023-04-19T16:14:17.434Z,4.70
2023-04-19T16:17:22.159Z,4.20
2023-04-19T16:20:27.172Z,4.00
2023-04-19T16:23:31.875Z,4.10
2023-04-19T16:26:35.137Z,5.30
2023-04-19T16:29:40.018Z,4.90
2023-04-19T16:32:44.739Z,3.40
2023-04-19T16:35:48.339Z,4.40
2023-04-19T16:38:52.572Z,5.00
2023-04-19T16:41:57.825Z,5.40
2023-04-19T16:45:01.107Z,4.80
2023-04-19T16:48:04.969Z,4.80
2023-04-19T16:51:09.628Z,5.40
2023-04-19T16:54:12.935Z,6.30
2023-04-19T16:57:19.449Z,7.00
2023-04-19T17:00:25.415Z,7.50
2023-04-19T17:03:30.756Z,7.50
2023-04-19T17:06:35.486Z,7.90
2023-04-19T17:09:40.228Z,7.50
2023-04-19T17:12:44.188Z,6.80
2023-04-19T17:15:50.413Z,6.60
2023-04-19T17:18:57.736Z,5.00
2023-04-19T17:22:08.303Z,5.60
2023-04-19T17:25:14.200Z,5.50
2023-04-19T17:28:18.169Z,4.80
2023-04-19T17:31:30.848Z,5.80
2023-04-19T17:34:37.039Z,5.10
2023-04-19T17:37:42.090Z,4.60
2023-04-19T17:40:45.827Z,4.50
2023-04-19T17:43:49.315Z,5.00
2023-04-19T17:46:53.109Z,5.90
2023-04-19T17:50:08.746Z,5.00
2023-04-19T17:53:16.348Z,6.60
2023-04-19T17:56:20.165Z,5.50
2023-04-19T17:59:25.441Z,4.90
2023-04-19T18:05:07.859Z,3.60
2023-04-19T18:08:13.405Z,4.10
2023-04-19T18:11:18.362Z,4.00
2023-04-19T18:14:20.256Z,4.40
2023-04-19T18:17:23.387Z,4.00
2023-04-19T18:20:26.664Z,4.00
2023-04-19T18:23:28.751Z,3.40
2023-04-19T18:26:59.250Z,4.80
2023-04-19T18:30:04.437Z,3.20
2023-04-19T18:33:07.879Z,3.10
2023-04-19T18:36:11.130Z,4.10
2023-04-19T18:39:13.495Z,3.20
2023-04-19T18:42:17.334Z,2.90
2023-04-19T18:45:19.321Z,3.00
2023-04-19T18:48:28.628Z,2.80
2023-04-19T18:51:31.470Z,3.30
2023-04-19T18:54:34.727Z,3.20
2023-04-19T18:57:38.271Z,3.30
2023-04-19T19:00:42.373Z,4.20
2023-04-19T19:04:12.647Z,3.30
2023-04-19T19:07:33.283Z,3.10
2023-04-19T19:11:06.573Z,3.40
2023-04-19T19:13:57.684Z,2.90
2023-04-19T19:17:05.935Z,3.60
2023-04-19T19:20:11.691Z,3.70
2023-04-19T19:23:15.670Z,3.60
2023-04-19T19:26:17.680Z,4.10
2023-04-19T19:29:22.545Z,3.90
2023-04-19T19:32:28.708Z,4.70
2023-04-19T19:35:36.950Z,4.90
2023-04-19T19:38:40.342Z,5.10
2023-04-19T19:44:54.472Z,5.40
2023-04-19T19:48:00.126Z,4.80
2023-04-19T19:51:20.832Z,5.20
2023-04-19T19:54:27.945Z,4.40
2023-04-19T19:58:18.527Z,4.90
2023-04-19T20:00:55.565Z,5.40
2023-04-19T20:03:59.116Z,5.50
2023-04-19T20:10:10.268Z,5.20
2023-04-19T20:13:13.409Z,6.20
2023-04-19T20:16:20.545Z,5.10
2023-04-19T20:19:24.556Z,5.50
2023-04-19T20:22:27.922Z,5.90
2023-04-19T20:25:35.615Z,5.50
2023-04-19T20:31:42.790Z,4.60
2023-04-19T20:34:45.429Z,5.00
2023-04-19T20:37:50.467Z,4.50
2023-04-19T20:40:53.452Z,4.80
2023-04-19T20:43:56.632Z,3.90
2023-04-19T20:46:58.502Z,4.00
2023-04-19T20:50:01.980Z,4.70
2023-04-19T20:53:05.731Z,3.70
2023-04-19T20:56:07.727Z,4.50
2023-04-19T20:59:10.304Z,3.80
2023-04-19T21:02:14.113Z,4.40
2023-04-19T21:05:16.235Z,4.60
2023-04-19T21:08:38.961Z,4.10
2023-04-19T21:11:42.234Z,5.00
2023-04-19T21:14:49.312Z,4.00
2023-04-19T21:17:55.205Z,4.60
2023-04-19T21:20:58.808Z,4.40
2023-04-19T21:24:02.254Z,4.10
2023-04-19T21:27:09.396Z,4.00
2023-04-19T21:30:15.588Z,3.90
2023-04-19T21:33:19.355Z,4.20
2023-04-19T21:36:26.785Z,4.50
2023-04-19T21:42:36.368Z,4.10
2023-04-19T21:45:40.919Z,5.50
2023-04-19T21:48:45.779Z,5.50
2023-04-19T21:51:51.320Z,4.90
2023-04-19T21:54:56.400Z,3.80
2023-04-19T21:58:01.491Z,4.90
2023-04-19T22:04:46.869Z,4.00
2023-04-19T22:07:51.491Z,4.60
2023-04-19T22:11:00.208Z,5.00
2023-04-19T22:14:05.904Z,4.60
2023-04-19T22:17:10.256Z,5.00
2023-04-19T22:20:15.971Z,4.40
2023-04-19T22:23:19.737Z,4.90
2023-04-19T22:26:23.254Z,4.20
2023-04-19T22:29:26.788Z,4.00
2023-04-19T22:32:30.419Z,4.80
2023-04-19T22:35:36.473Z,4.60
2023-04-19T22:38:39.886Z,3.90
2023-04-19T22:41:43.917Z,4.20
2023-04-19T22:44:49.290Z,3.80
2023-04-19T22:47:56.041Z,4.80
2023-04-19T22:51:00.842Z,6.50
2023-04-19T22:54:10.710Z,4.20
2023-04-19T22:57:15.855Z,4.60
2023-04-19T23:00:20.050Z,5.20
2023-04-19T23:03:24.749Z,4.50
2023-04-19T23:06:29.236Z,4.80
2023-04-19T23:09:32.686Z,3.70
2023-04-19T23:12:37.344Z,4.90
2023-04-19T23:15:43.259Z,5.00
2023-04-19T23:18:47.056Z,4.50
2023-04-19T23:21:50.911Z,3.60
2023-04-19T23:24:55.694Z,4.20
2023-04-19T23:28:00.583Z,3.00
2023-04-19T23:31:03.910Z,3.50
2023-04-19T23:34:10.076Z,3.30
2023-04-19T23:37:15.431Z,3.70
2023-04-19T23:40:21.392Z,3.00
2023-04-19T23:43:26.029Z,3.60
2023-04-19T23:46:29.945Z,3.50
2023-04-19T23:49:35.605Z,3.70
2023-04-19T23:52:38.957Z,3.30
2023-04-19T23:55:43.000Z,3.50
2023-04-19T23:58:46.621Z,5.60
